Rochester, MN

8:26 PM CDT on May 26, 2015 (GMT -0500)
Honeckland, Elton Hills | | Change Station
CLOSE
Current Station
Personal Weather Station
Location: Rochester, MN
Elevation: 1037 ft
Nearby Weather Stations

Elev 1037 ft 44.05 °N, 92.48 °W | Updated 2 minutes ago

Overcast
Overcast
59.2 °F
Feels Like 59.2 °F
N
2.2
Wind Variable Wind from West

Today
High -- | Low -- °F
--% Chance of Precip.
Yesterday
High -- | Low -- °F
Precip. -- in
5:33 AM 8:40 PM
Waxing Gibbous, 62% visible
Pressure 29.78 in
Visibility 3.0 miles
Clouds Mostly Cloudy 500 ft
Mostly Cloudy 1200 ft
Overcast 2200 ft
Dew Point 59 °F
Humidity 99%
Rainfall 0.75 in
Snow Depth Not available.
UV 0 out of 12
Pollen 1.10 out of 12
Air Quality Not available.
Flu Activity Sporadic
METAR K9MN 270114Z AUTO 30004KT 3SM BKN005 BKN012 OVC022 15/15 A2978 RMK AO1 P0002 T01480150

More Conditions Fewer Conditions

Pressure 29.78 in
Visibility 3.0 miles
Clouds Mostly Cloudy 500 ft
Mostly Cloudy 1200 ft
Overcast 2200 ft
Dew Point 59 °F
Humidity 99%
Rainfall 0.75 in
Snow Depth Not available.
UV 0 out of 12
Pollen 1.10 out of 12
Air Quality Not available.
Flu Activity Sporadic
METAR K9MN 270114Z AUTO 30004KT 3SM BKN005 BKN012 OVC022 15/15 A2978 RMK AO1 P0002 T01480150

More Conditions Fewer Conditions

10-Day Weather Forecast

Almanac

Astronomy

May. 26, 2015 Rise Set
Actual Time
Civil Twilight
Nautical Twilight
Astronomical Twilight
Moon
Length of Visible Light
Length of Day
Tomorrow will be .
, % of the Moon is Illuminated

Today's Extremes

State Highs State Lows

Community

WunderPhotos

Upload Photos

1,824,540 photos uploaded!

WunderBlogs® & News

Nearby

Air Quality

  Air Quality AQ Index Pollutant
Not available.

Snow Depth

Station Depth Elevation

Earthquake Activity

City Distance Mag. Time & Date
Minimum magnitude displayed is 2.5.

Coastal Water Temperatures

Place Temperature

Stations

Nearby Weather Stations

Station Location Temp. Windchill Dew Point Humidity Wind Precip. Elev Updated Type